createdAt,value
2023-05-10T00:00:39.529Z,93456.38
2023-05-10T00:03:08.511Z,93452.78
2023-05-10T00:05:36.781Z,93436.72
2023-05-10T00:08:05.545Z,93437.16
2023-05-10T00:10:34.396Z,93455.41
2023-05-10T00:13:02.638Z,93459.72
2023-05-10T00:15:32.939Z,93463.41
2023-05-10T00:18:01.596Z,93456.44
2023-05-10T00:20:29.956Z,93438.00
2023-05-10T00:22:58.298Z,93433.97
2023-05-10T00:25:26.903Z,93473.78
2023-05-10T00:27:57.249Z,93463.91
2023-05-10T00:30:26.183Z,93484.53
2023-05-10T00:32:54.846Z,93488.63
2023-05-10T00:35:23.849Z,93435.34
2023-05-10T00:37:52.475Z,93469.81
2023-05-10T00:40:20.613Z,93456.09
2023-05-10T00:42:49.207Z,93479.81
2023-05-10T00:45:17.497Z,93465.88
2023-05-10T00:47:46.196Z,93470.63
2023-05-10T00:50:15.080Z,93482.50
2023-05-10T00:52:45.337Z,93480.69
2023-05-10T00:55:14.915Z,93487.25
2023-05-10T00:57:44.587Z,93490.53
2023-05-10T01:00:15.213Z,93465.75
2023-05-10T01:02:44.774Z,93477.22
2023-05-10T01:05:14.066Z,93474.44
2023-05-10T01:07:44.475Z,93507.09
2023-05-10T01:10:14.972Z,93505.84
2023-05-10T01:12:46.248Z,93488.31
2023-05-10T01:15:16.351Z,93516.63
2023-05-10T01:17:47.760Z,93488.44
2023-05-10T01:20:17.878Z,93500.56
2023-05-10T01:23:20.821Z,93520.13
2023-05-10T01:26:16.487Z,93510.03
2023-05-10T01:29:19.664Z,93482.72
2023-05-10T01:32:16.900Z,93503.75
2023-05-10T01:35:04.377Z,93475.84
2023-05-10T01:38:07.752Z,93503.25
2023-05-10T01:40:50.153Z,93501.59
2023-05-10T01:43:28.543Z,93502.19
2023-05-10T01:46:12.549Z,93493.38
2023-05-10T01:48:49.328Z,93491.84
2023-05-10T01:51:26.862Z,93495.41
2023-05-10T01:54:03.596Z,93488.16
2023-05-10T01:56:35.780Z,93498.22
2023-05-10T01:59:11.816Z,93498.03
2023-05-10T02:01:41.189Z,93482.25
2023-05-10T02:04:12.324Z,93500.06
2023-05-10T02:06:41.825Z,93491.25
2023-05-10T02:09:11.441Z,93510.59
2023-05-10T02:11:42.095Z,93518.53
2023-05-10T02:14:13.517Z,93497.69
2023-05-10T02:16:43.239Z,93531.13
2023-05-10T02:19:15.462Z,93536.50
2023-05-10T02:21:45.916Z,93535.28
2023-05-10T02:24:15.309Z,93537.56
2023-05-10T02:26:45.094Z,93536.84
2023-05-10T02:29:15.135Z,93543.03
2023-05-10T02:31:48.628Z,93542.88
2023-05-10T02:34:17.444Z,93547.56
2023-05-10T02:36:46.440Z,93552.38
2023-05-10T02:39:17.100Z,93554.25
2023-05-10T02:41:47.879Z,93558.25
2023-05-10T02:44:19.976Z,93557.25
2023-05-10T02:46:49.394Z,93562.31
2023-05-10T02:49:18.755Z,93550.91
2023-05-10T02:51:53.388Z,93559.84
2023-05-10T02:54:26.879Z,93566.50
2023-05-10T02:57:02.942Z,93568.66
2023-05-10T02:59:32.206Z,93576.31
2023-05-10T03:02:02.814Z,93571.16
2023-05-10T03:04:31.197Z,93580.81
2023-05-10T03:07:00.266Z,93586.81
2023-05-10T03:09:29.026Z,93580.09
2023-05-10T03:12:13.150Z,93582.22
2023-05-10T03:15:08.896Z,93595.53
2023-05-10T03:17:53.172Z,93585.69
2023-05-10T03:20:28.295Z,93583.69
2023-05-10T03:23:07.559Z,93580.63
2023-05-10T03:25:36.292Z,93588.25
2023-05-10T03:28:07.070Z,93588.56
2023-05-10T03:30:37.255Z,93584.16
2023-05-10T03:33:09.022Z,93575.13
2023-05-10T03:35:37.199Z,93596.38
2023-05-10T03:38:05.787Z,93601.06
2023-05-10T03:40:35.495Z,93602.66
2023-05-10T03:43:04.210Z,93604.72
2023-05-10T03:45:33.232Z,93609.44
2023-05-10T03:48:01.935Z,93612.53
2023-05-10T03:50:30.715Z,93608.38
2023-05-10T03:53:00.008Z,93610.19
2023-05-10T03:55:28.643Z,93616.44
2023-05-10T03:57:57.261Z,93622.69
2023-05-10T04:00:25.908Z,93622.94
2023-05-10T04:02:54.277Z,93625.81
2023-05-10T04:05:22.398Z,93629.97
2023-05-10T04:07:51.933Z,93601.19
2023-05-10T04:10:20.596Z,93627.91
2023-05-10T04:12:49.246Z,93614.41
2023-05-10T04:15:17.921Z,93625.56
2023-05-10T04:17:46.826Z,93630.00
2023-05-10T04:20:16.478Z,93631.81
2023-05-10T04:22:45.233Z,93631.06
2023-05-10T04:25:14.025Z,93634.44
2023-05-10T04:27:42.672Z,93630.81
2023-05-10T04:30:11.721Z,93616.03
2023-05-10T04:32:40.417Z,93639.13
2023-05-10T04:35:09.327Z,93631.84
2023-05-10T04:37:38.891Z,93616.53
2023-05-10T04:40:08.587Z,93644.84
2023-05-10T04:42:37.179Z,93642.75
2023-05-10T04:45:06.124Z,93634.44
2023-05-10T04:47:35.117Z,93647.44
2023-05-10T04:50:03.759Z,93636.72
2023-05-10T04:52:32.311Z,93650.00
2023-05-10T04:55:00.900Z,93649.50
2023-05-10T04:57:29.052Z,93635.41
2023-05-10T04:59:57.761Z,93631.00
2023-05-10T05:02:26.799Z,93650.75
2023-05-10T05:04:55.444Z,93651.00
2023-05-10T05:07:24.767Z,93651.22
2023-05-10T05:09:53.309Z,93641.09
2023-05-10T05:12:21.891Z,93653.53
2023-05-10T05:14:50.439Z,93643.94
2023-05-10T05:17:19.114Z,93648.56
2023-05-10T05:19:48.608Z,93656.28
2023-05-10T05:22:17.772Z,93645.09
2023-05-10T05:24:49.147Z,93652.34
2023-05-10T05:27:17.685Z,93629.94
2023-05-10T05:29:46.258Z,93660.06
2023-05-10T05:32:15.846Z,93653.25
2023-05-10T05:34:44.403Z,93660.16
2023-05-10T05:37:18.908Z,93625.75
2023-05-10T05:39:47.863Z,93642.31
2023-05-10T05:42:18.908Z,93666.22
2023-05-10T05:44:47.499Z,93660.75
2023-05-10T05:47:16.306Z,93636.16
2023-05-10T05:49:44.913Z,93666.84
2023-05-10T05:52:13.561Z,93660.56
2023-05-10T05:54:42.253Z,93660.28
2023-05-10T05:57:11.007Z,93633.88
2023-05-10T05:59:44.170Z,93657.84
2023-05-10T06:02:13.425Z,93651.53
2023-05-10T06:04:44.669Z,93662.94
2023-05-10T06:07:13.572Z,93629.38
2023-05-10T06:09:41.874Z,93640.00
2023-05-10T06:12:10.429Z,93656.13
2023-05-10T06:14:41.564Z,93634.75
2023-05-10T06:17:09.898Z,93651.19
2023-05-10T06:19:39.165Z,93631.38
2023-05-10T06:22:07.735Z,93647.78
2023-05-10T06:24:36.372Z,93650.06
2023-05-10T06:27:05.884Z,93651.34
2023-05-10T06:29:35.589Z,93655.91
2023-05-10T06:32:04.658Z,93653.03
2023-05-10T06:34:33.969Z,93626.50
2023-05-10T06:37:02.290Z,93647.81
2023-05-10T06:39:31.210Z,93644.94
2023-05-10T06:41:59.772Z,93618.94
2023-05-10T06:44:28.352Z,93625.56
2023-05-10T06:46:58.163Z,93650.25
2023-05-10T06:49:26.474Z,93646.81
2023-05-10T06:51:55.073Z,93646.78
2023-05-10T06:54:23.419Z,93643.88
2023-05-10T06:56:52.110Z,93650.56
2023-05-10T06:59:22.748Z,93657.78
2023-05-10T07:01:51.699Z,93652.06
2023-05-10T07:04:20.296Z,93646.84
2023-05-10T07:06:49.924Z,93645.75
2023-05-10T07:09:18.059Z,93660.47
2023-05-10T07:11:46.605Z,93657.59
2023-05-10T07:14:15.184Z,93661.97
2023-05-10T07:16:43.875Z,93650.31
2023-05-10T07:19:12.669Z,93650.81
2023-05-10T07:21:42.777Z,93657.78
2023-05-10T07:24:11.617Z,93654.56
2023-05-10T07:26:40.268Z,93659.97
2023-05-10T07:29:08.672Z,93664.06
2023-05-10T07:31:37.443Z,93640.31
2023-05-10T07:34:06.068Z,93665.38
2023-05-10T07:36:34.845Z,93663.88
2023-05-10T07:39:03.437Z,93654.16
2023-05-10T07:41:32.289Z,93657.03
2023-05-10T07:44:00.933Z,93630.63
2023-05-10T07:46:29.805Z,93650.72
2023-05-10T07:48:58.200Z,93649.44
2023-05-10T07:51:27.781Z,93646.56
2023-05-10T07:53:56.601Z,93642.97
2023-05-10T07:56:31.456Z,93648.75
2023-05-10T07:59:04.478Z,93643.22
2023-05-10T08:01:37.330Z,93646.91
2023-05-10T08:04:06.098Z,93647.84
2023-05-10T08:06:34.751Z,93656.06
2023-05-10T08:09:03.597Z,93619.13
2023-05-10T08:11:33.698Z,93651.88
2023-05-10T08:14:03.573Z,93626.09
2023-05-10T08:16:32.383Z,93659.31
2023-05-10T08:19:01.185Z,93647.66
2023-05-10T08:21:29.899Z,93656.41
2023-05-10T08:23:58.478Z,93659.47
2023-05-10T08:26:26.810Z,93665.44
2023-05-10T08:28:55.337Z,93633.69
2023-05-10T08:31:24.036Z,93658.69
2023-05-10T08:33:53.914Z,93622.06
2023-05-10T08:36:23.770Z,93656.13
2023-05-10T08:38:57.088Z,93653.63
2023-05-10T08:41:29.093Z,93655.66
2023-05-10T08:43:57.906Z,93642.84
2023-05-10T08:46:26.534Z,93666.31
2023-05-10T08:48:56.889Z,93672.16
2023-05-10T08:51:28.799Z,93666.16
2023-05-10T08:53:57.809Z,93678.69
2023-05-10T08:56:26.527Z,93669.91
2023-05-10T08:58:55.186Z,93673.34
2023-05-10T09:01:25.411Z,93668.13
2023-05-10T09:03:55.217Z,93674.38
2023-05-10T09:06:25.201Z,93668.19
2023-05-10T09:08:55.265Z,93673.59
2023-05-10T09:11:24.526Z,93669.69
2023-05-10T09:13:54.987Z,93672.50
2023-05-10T09:16:24.115Z,93671.41
2023-05-10T09:18:53.974Z,93639.13
2023-05-10T09:21:22.820Z,93661.63
2023-05-10T09:23:52.359Z,93635.53
2023-05-10T09:26:25.147Z,93639.28
2023-05-10T09:28:58.616Z,93669.75
2023-05-10T09:31:45.490Z,93670.84
2023-05-10T09:34:13.707Z,93677.50
2023-05-10T09:36:57.165Z,93675.94
2023-05-10T09:39:35.763Z,93671.78
2023-05-10T09:42:11.815Z,93651.16
2023-05-10T09:44:40.714Z,93671.25
2023-05-10T09:47:09.301Z,93667.41
2023-05-10T09:49:37.911Z,93645.53
2023-05-10T09:52:08.868Z,93645.13
2023-05-10T09:54:38.420Z,93666.84
2023-05-10T09:57:07.061Z,93671.28
2023-05-10T09:59:37.667Z,93660.50
2023-05-10T10:02:06.583Z,93660.03
2023-05-10T10:04:41.580Z,93633.13
2023-05-10T10:07:10.505Z,93663.88
2023-05-10T10:09:39.124Z,93658.00
2023-05-10T10:12:08.070Z,93655.47
2023-05-10T10:14:37.057Z,93651.66
2023-05-10T10:17:08.768Z,93660.78
2023-05-10T10:19:38.832Z,93665.69
2023-05-10T10:22:08.545Z,93662.16
2023-05-10T10:24:37.152Z,93641.06
2023-05-10T10:27:43.842Z,93672.25
2023-05-10T10:30:43.196Z,93685.00
2023-05-10T10:33:42.193Z,93679.94
2023-05-10T10:36:10.738Z,93682.94
2023-05-10T10:39:01.998Z,93687.81
2023-05-10T10:41:36.183Z,93697.34
2023-05-10T10:44:39.358Z,93696.81
2023-05-10T10:47:13.957Z,93697.06
2023-05-10T10:49:54.299Z,93678.47
2023-05-10T10:52:32.220Z,93698.47
2023-05-10T10:55:07.185Z,93683.91
2023-05-10T10:58:06.834Z,93706.50
2023-05-10T11:00:37.046Z,93716.28
2023-05-10T11:03:21.121Z,93714.25
2023-05-10T11:06:00.552Z,93713.06
2023-05-10T11:08:35.746Z,93702.91
2023-05-10T11:11:11.501Z,93704.63
2023-05-10T11:13:51.713Z,93677.59
2023-05-10T11:16:27.509Z,93712.94
2023-05-10T11:19:00.022Z,93716.53
2023-05-10T11:21:28.782Z,93722.22
2023-05-10T11:23:59.575Z,93699.41
2023-05-10T11:26:38.290Z,93719.19
2023-05-10T11:29:07.439Z,93715.59
2023-05-10T11:31:36.252Z,93703.94
2023-05-10T11:34:04.898Z,93691.97
2023-05-10T11:36:38.588Z,93741.47
2023-05-10T11:39:08.239Z,93737.06
2023-05-10T11:41:36.811Z,93718.66
2023-05-10T11:44:05.632Z,93712.63
2023-05-10T11:46:34.338Z,93744.00
2023-05-10T11:49:06.355Z,93751.03
2023-05-10T11:51:38.293Z,93753.75
2023-05-10T11:54:11.816Z,93749.53
2023-05-10T11:56:41.872Z,93749.97
2023-05-10T11:59:10.769Z,93752.09
2023-05-10T12:01:39.625Z,93741.31
2023-05-10T12:04:08.542Z,93756.41
2023-05-10T12:06:43.015Z,93756.09
2023-05-10T12:09:11.646Z,93738.19
2023-05-10T12:11:44.520Z,93754.25
2023-05-10T12:14:13.604Z,93759.75
2023-05-10T12:16:42.559Z,93760.38
2023-05-10T12:19:11.518Z,93769.13
2023-05-10T12:21:40.670Z,93764.91
2023-05-10T12:24:10.558Z,93740.41
2023-05-10T12:26:39.689Z,93760.38
2023-05-10T12:29:16.865Z,93765.25
2023-05-10T12:32:02.474Z,93743.44
2023-05-10T12:34:34.280Z,93767.31
2023-05-10T12:37:02.853Z,93760.47
2023-05-10T12:39:45.342Z,93724.03
2023-05-10T12:42:14.439Z,93736.38
2023-05-10T12:44:43.101Z,93766.75
2023-05-10T12:47:11.501Z,93765.66
2023-05-10T12:49:40.281Z,93776.91
2023-05-10T12:52:08.480Z,93770.09
2023-05-10T12:54:38.039Z,93743.88
2023-05-10T12:57:06.668Z,93762.25
2023-05-10T12:59:36.742Z,93764.66
2023-05-10T13:02:07.251Z,93773.97
2023-05-10T13:04:35.745Z,93767.00
2023-05-10T13:07:05.758Z,93746.19
2023-05-10T13:09:34.025Z,93743.69
2023-05-10T13:12:02.426Z,93751.56
2023-05-10T13:14:33.122Z,93744.59
2023-05-10T13:17:02.696Z,93764.94
2023-05-10T13:19:30.833Z,93772.75
2023-05-10T13:21:59.462Z,93771.78
2023-05-10T13:24:27.950Z,93780.63
2023-05-10T13:26:56.276Z,93773.72
2023-05-10T13:29:24.604Z,93779.69
2023-05-10T13:31:53.309Z,93779.84
2023-05-10T13:34:23.570Z,93764.28
2023-05-10T13:36:52.214Z,93788.75
2023-05-10T13:39:20.797Z,93758.31
2023-05-10T13:41:49.004Z,93767.41
2023-05-10T13:44:18.324Z,93789.38
2023-05-10T13:46:47.623Z,93783.88
2023-05-10T13:49:16.747Z,93796.34
2023-05-10T13:51:46.346Z,93791.75
2023-05-10T13:54:14.689Z,93777.25
2023-05-10T13:56:44.497Z,93792.59
2023-05-10T13:59:12.860Z,93766.09
2023-05-10T14:01:41.935Z,93793.53
2023-05-10T14:04:11.967Z,93780.34
2023-05-10T14:06:42.937Z,93793.47
2023-05-10T14:09:11.255Z,93792.16
2023-05-10T14:11:43.489Z,93778.28
2023-05-10T14:14:11.727Z,93785.00
2023-05-10T14:16:39.937Z,93786.06
2023-05-10T14:19:08.597Z,93787.34
2023-05-10T14:21:37.274Z,93788.38
2023-05-10T14:24:07.837Z,93793.47
2023-05-10T14:26:39.102Z,93779.19
2023-05-10T14:29:08.396Z,93797.47
2023-05-10T14:31:38.135Z,93799.41
2023-05-10T14:34:06.896Z,93789.78
2023-05-10T14:36:35.905Z,93783.19
2023-05-10T14:39:05.299Z,93790.19
2023-05-10T14:41:34.203Z,93786.41
2023-05-10T14:44:02.942Z,93776.09
2023-05-10T14:46:32.352Z,93778.22
2023-05-10T14:49:00.802Z,93783.72
2023-05-10T14:51:30.270Z,93770.75
2023-05-10T14:53:58.218Z,93762.16
2023-05-10T14:56:28.232Z,93782.16
2023-05-10T14:58:57.633Z,93770.00
2023-05-10T15:01:27.019Z,93780.44
2023-05-10T15:03:55.964Z,93776.56
2023-05-10T15:06:34.078Z,93781.75
2023-05-10T15:09:03.438Z,93755.25
2023-05-10T15:11:32.403Z,93765.38
2023-05-10T15:14:01.168Z,93785.91
2023-05-10T15:16:32.241Z,93781.97
2023-05-10T15:19:02.227Z,93772.56
2023-05-10T15:21:30.879Z,93781.84
2023-05-10T15:23:59.462Z,93786.84
2023-05-10T15:26:28.580Z,93776.78
2023-05-10T15:28:56.774Z,93760.59
2023-05-10T15:31:25.456Z,93778.28
2023-05-10T15:33:54.119Z,93785.06
2023-05-10T15:36:22.917Z,93761.75
2023-05-10T15:38:51.485Z,93778.47
2023-05-10T15:41:20.104Z,93779.38
2023-05-10T15:43:49.779Z,93775.38
2023-05-10T15:46:18.547Z,93763.66
2023-05-10T15:48:47.116Z,93746.75
2023-05-10T15:51:15.629Z,93757.41
2023-05-10T15:53:56.475Z,93765.63
2023-05-10T15:56:28.838Z,93770.50
2023-05-10T15:58:57.684Z,93770.13
2023-05-10T16:01:26.574Z,93775.91
2023-05-10T16:03:55.181Z,93769.16
2023-05-10T16:06:23.837Z,93765.09
2023-05-10T16:08:54.118Z,93761.06
2023-05-10T16:11:22.804Z,93747.03
2023-05-10T16:13:51.391Z,93749.94
2023-05-10T16:16:20.135Z,93762.50
2023-05-10T16:18:48.898Z,93744.72
2023-05-10T16:21:17.571Z,93764.09
2023-05-10T16:23:47.936Z,93770.53
2023-05-10T16:26:16.072Z,93768.44
2023-05-10T16:28:44.628Z,93772.25
2023-05-10T16:31:13.192Z,93748.19
2023-05-10T16:33:41.466Z,93753.22
2023-05-10T16:36:10.050Z,93771.16
2023-05-10T16:38:40.080Z,93770.50
2023-05-10T16:41:08.128Z,93776.25
2023-05-10T16:43:37.434Z,93766.16
2023-05-10T16:46:12.867Z,93764.25
2023-05-10T16:48:41.553Z,93770.81
2023-05-10T16:51:10.253Z,93770.66
2023-05-10T16:53:39.222Z,93764.81
2023-05-10T16:56:08.031Z,93761.63
2023-05-10T16:58:36.899Z,93752.19
2023-05-10T17:01:05.563Z,93739.84
2023-05-10T17:03:34.897Z,93762.28
2023-05-10T17:06:03.424Z,93740.19
2023-05-10T17:08:32.070Z,93734.38
2023-05-10T17:11:04.002Z,93764.06
2023-05-10T17:13:33.385Z,93760.69
2023-05-10T17:16:06.009Z,93763.38
2023-05-10T17:18:34.704Z,93742.97
2023-05-10T17:21:03.302Z,93748.09
2023-05-10T17:23:32.931Z,93764.59
2023-05-10T17:26:01.793Z,93764.53
2023-05-10T17:28:30.431Z,93761.78
2023-05-10T17:30:59.710Z,93766.16
2023-05-10T17:33:28.280Z,93762.28
2023-05-10T17:35:58.069Z,93768.72
2023-05-10T17:38:27.817Z,93769.13
2023-05-10T17:40:56.009Z,93741.59
2023-05-10T17:43:25.305Z,93761.81
2023-05-10T17:45:53.795Z,93748.50
2023-05-10T17:48:22.436Z,93755.78
2023-05-10T17:50:54.138Z,93757.13
2023-05-10T17:53:22.751Z,93752.94
2023-05-10T17:55:53.646Z,93753.16
2023-05-10T17:58:22.275Z,93724.69
2023-05-10T18:00:51.161Z,93745.22
2023-05-10T18:03:19.845Z,93752.94
2023-05-10T18:05:49.909Z,93752.53
2023-05-10T18:08:23.880Z,93731.31
2023-05-10T18:10:53.350Z,93749.81
2023-05-10T18:13:22.333Z,93752.84
2023-05-10T18:15:50.897Z,93755.06
2023-05-10T18:18:19.616Z,93735.56
2023-05-10T18:20:48.384Z,93751.69
2023-05-10T18:23:17.267Z,93747.72
2023-05-10T18:25:45.815Z,93746.84
2023-05-10T18:28:14.466Z,93729.50
2023-05-10T18:30:43.408Z,93739.72
2023-05-10T18:33:14.145Z,93744.84
2023-05-10T18:35:42.665Z,93737.19
2023-05-10T18:38:11.008Z,93734.88
2023-05-10T18:40:40.022Z,93719.97
2023-05-10T18:43:08.425Z,93737.69
2023-05-10T18:45:36.934Z,93733.53
2023-05-10T18:48:04.996Z,93734.13
2023-05-10T18:50:33.499Z,93710.66
2023-05-10T18:53:01.641Z,93726.47
2023-05-10T18:55:29.776Z,93721.84
2023-05-10T18:57:58.406Z,93723.06
2023-05-10T19:00:26.940Z,93719.53
2023-05-10T19:02:56.129Z,93721.28
2023-05-10T19:05:30.624Z,93729.97
2023-05-10T19:07:58.693Z,93702.56
2023-05-10T19:10:26.648Z,93728.56
2023-05-10T19:12:54.729Z,93720.72
2023-05-10T19:15:22.985Z,93716.94
2023-05-10T19:17:57.242Z,93719.47
2023-05-10T19:20:25.800Z,93720.50
2023-05-10T19:23:09.098Z,93713.72
2023-05-10T19:25:38.621Z,93715.22
2023-05-10T19:28:07.359Z,93711.97
2023-05-10T19:30:35.964Z,93706.31
2023-05-10T19:33:08.041Z,93700.50
2023-05-10T19:35:37.256Z,93693.31
2023-05-10T19:38:06.077Z,93680.59
2023-05-10T19:40:34.555Z,93691.50
2023-05-10T19:43:03.366Z,93671.22
2023-05-10T19:45:31.531Z,93690.72
2023-05-10T19:48:00.297Z,93663.91
2023-05-10T19:50:28.963Z,93677.13
2023-05-10T19:52:59.293Z,93659.03
2023-05-10T19:55:30.595Z,93661.56
2023-05-10T19:57:59.723Z,93677.88
2023-05-10T20:00:29.131Z,93675.47
2023-05-10T20:02:58.391Z,93666.31
2023-05-10T20:05:27.133Z,93670.28
2023-05-10T20:07:55.562Z,93674.09
2023-05-10T20:10:25.706Z,93657.72
2023-05-10T20:12:55.853Z,93643.19
2023-05-10T20:15:25.185Z,93660.13
2023-05-10T20:17:57.050Z,93658.09
2023-05-10T20:20:25.863Z,93656.66
2023-05-10T20:22:54.435Z,93653.84
2023-05-10T20:25:23.174Z,93639.97
2023-05-10T20:27:54.569Z,93647.34
2023-05-10T20:30:24.195Z,93636.53
2023-05-10T20:32:53.245Z,93639.16
2023-05-10T20:35:22.149Z,93640.50
2023-05-10T20:37:50.122Z,93597.16
2023-05-10T20:40:19.089Z,93619.09
2023-05-10T20:42:47.424Z,93633.38
2023-05-10T20:45:15.787Z,93638.25
2023-05-10T20:47:44.430Z,93618.69
2023-05-10T20:50:13.063Z,93635.22
2023-05-10T20:52:41.728Z,93634.41
2023-05-10T20:55:10.447Z,93623.31
2023-05-10T20:57:38.564Z,93625.19
2023-05-10T21:00:07.881Z,93629.59
2023-05-10T21:02:36.174Z,93602.22
2023-05-10T21:05:05.141Z,93600.09
2023-05-10T21:07:34.302Z,93624.53
2023-05-10T21:10:02.991Z,93626.66
2023-05-10T21:12:31.372Z,93622.28
2023-05-10T21:14:59.715Z,93619.06
2023-05-10T21:17:28.873Z,93600.84
2023-05-10T21:19:57.621Z,93614.44
2023-05-10T21:22:26.214Z,93615.28
2023-05-10T21:24:54.871Z,93626.19
2023-05-10T21:27:23.454Z,93597.88
2023-05-10T21:29:51.999Z,93600.34
2023-05-10T21:32:20.651Z,93597.66
2023-05-10T21:34:49.049Z,93595.41
2023-05-10T21:37:21.010Z,93611.75
2023-05-10T21:39:49.626Z,93609.44
2023-05-10T21:42:18.268Z,93605.50
2023-05-10T21:44:46.948Z,93606.78
2023-05-10T21:47:15.593Z,93592.19
2023-05-10T21:49:44.198Z,93583.25
2023-05-10T21:52:13.122Z,93603.75
2023-05-10T21:54:41.684Z,93595.97
2023-05-10T21:57:10.361Z,93594.81
2023-05-10T21:59:41.116Z,93578.13
2023-05-10T22:02:09.385Z,93567.56
2023-05-10T22:04:37.701Z,93581.94
2023-05-10T22:07:06.286Z,93594.03
2023-05-10T22:09:34.941Z,93574.41
2023-05-10T22:12:03.039Z,93578.53
2023-05-10T22:14:32.283Z,93566.44
2023-05-10T22:17:01.073Z,93583.16
2023-05-10T22:19:29.660Z,93581.16
2023-05-10T22:21:57.987Z,93595.13
2023-05-10T22:24:26.515Z,93584.56
2023-05-10T22:26:58.540Z,93585.72
2023-05-10T22:29:26.741Z,93580.19
2023-05-10T22:31:54.883Z,93581.75
2023-05-10T22:34:23.885Z,93579.69
2023-05-10T22:36:52.533Z,93580.13
2023-05-10T22:39:20.852Z,93586.50
2023-05-10T22:41:50.367Z,93593.59
2023-05-10T22:44:18.979Z,93595.13
2023-05-10T22:46:48.589Z,93597.59
2023-05-10T22:49:17.019Z,93595.72
2023-05-10T22:51:45.593Z,93593.94
2023-05-10T22:54:14.191Z,93596.84
2023-05-10T22:56:42.916Z,93573.38
2023-05-10T22:59:12.421Z,93586.44
2023-05-10T23:01:41.119Z,93592.50
2023-05-10T23:04:09.848Z,93597.34
2023-05-10T23:06:38.125Z,93598.94
2023-05-10T23:09:06.130Z,93601.56
2023-05-10T23:11:35.243Z,93598.97
2023-05-10T23:14:13.101Z,93608.31
2023-05-10T23:16:44.986Z,93613.16
2023-05-10T23:19:21.285Z,93608.53
2023-05-10T23:21:50.473Z,93612.56
2023-05-10T23:24:19.132Z,93603.63
2023-05-10T23:27:05.646Z,93610.44
2023-05-10T23:29:47.509Z,93605.03
2023-05-10T23:32:41.997Z,93607.66
2023-05-10T23:35:21.009Z,93584.91
2023-05-10T23:40:39.794Z,93588.31
2023-05-10T23:43:08.191Z,93615.84
2023-05-10T23:45:36.932Z,93609.66
2023-05-10T23:48:05.112Z,93607.34
2023-05-10T23:50:33.107Z,93615.84
2023-05-10T23:53:01.173Z,93617.84
2023-05-10T23:55:29.229Z,93594.50
2023-05-10T23:57:57.715Z,93604.22
